Time;durP1;ratioP1;P1;durP2;ratioP2;P2;SDS_P1;SDS_P2;PMS_P1;PMS_P2;Temp;Humidity;BMP_temperature;BMP_pressure;BME280_temperature;BME280_humidity;BME280_pressure;Samples;Min_cycle;Max_cycle;Signal;HPM_P1;HPM_P2
2022/07/06 00:01:56;;;;;;;3.92;1.75;;;;;;;;;;4947800;28;20489;-68
2022/07/06 00:04:42;;;;;;;2.35;1.50;;;;;;;;;;4946706;28;20028;-68
2022/07/06 00:07:28;;;;;;;4.18;1.92;;;;;;;;;;4945771;28;20019;-70
2022/07/06 00:10:13;;;;;;;5.25;2.25;;;;;;;;;;4952936;28;20027;-70
2022/07/06 00:12:59;;;;;;;4.57;2.00;;;;;;;;;;4943542;28;20039;-69
2022/07/06 00:15:44;;;;;;;4.28;1.95;;;;;;;;;;4947193;28;20039;-69
2022/07/06 00:18:30;;;;;;;4.78;2.38;;;;;;;;;;4952395;28;20351;-69
2022/07/06 00:21:15;;;;;;;3.78;2.53;;;;;;;;;;4946824;28;20028;-72
2022/07/06 00:24:01;;;;;;;6.13;2.22;;;;;;;;;;4945732;28;20034;-56
2022/07/06 00:26:47;;;;;;;1.70;1.60;;;;;;;;;;4964409;28;20279;-59
2022/07/06 00:29:32;;;;;;;4.50;1.90;;;;;;;;;;4945410;28;20035;-60
2022/07/06 00:32:18;;;;;;;3.78;2.17;;;;;;;;;;4944370;28;20042;-60
2022/07/06 00:35:04;;;;;;;4.72;2.15;;;;;;;;;;4942505;28;20063;-60
2022/07/06 00:37:49;;;;;;;4.55;2.10;;;;;;;;;;4946794;28;20034;-58
2022/07/06 00:40:35;;;;;;;5.50;2.47;;;;;;;;;;4947042;28;20039;-60
2022/07/06 00:43:20;;;;;;;6.95;2.53;;;;;;;;;;4948207;28;20050;-60
2022/07/06 00:46:09;;;;;;;4.03;2.10;;;;;;;;;;4947911;28;20027;-60
2022/07/06 00:48:54;;;;;;;2.80;1.65;;;;;;;;;;4994780;28;20405;-59
2022/07/06 00:51:40;;;;;;;3.10;2.10;;;;;;;;;;4948188;28;20027;-59
2022/07/06 00:54:26;;;;;;;2.75;1.83;;;;;;;;;;4950032;28;20032;-59
2022/07/06 00:57:12;;;;;;;6.15;2.10;;;;;;;;;;4947996;28;20398;-61
2022/07/06 00:59:58;;;;;;;3.50;2.00;;;;;;;;;;4960156;28;20030;-71
2022/07/06 01:02:43;;;;;;;5.35;2.78;;;;;;;;;;4956119;28;20031;-66
2022/07/06 01:05:29;;;;;;;3.20;2.28;;;;;;;;;;4952980;28;20034;-68
2022/07/06 01:08:16;;;;;;;4.05;2.38;;;;;;;;;;4953577;28;20482;-64
2022/07/06 01:11:02;;;;;;;4.57;2.20;;;;;;;;;;4957406;28;20470;-65
2022/07/06 01:13:48;;;;;;;4.90;2.50;;;;;;;;;;4950194;28;20034;-65
2022/07/06 01:16:33;;;;;;;5.75;2.30;;;;;;;;;;4945153;28;20062;-70
2022/07/06 01:19:19;;;;;;;5.57;2.42;;;;;;;;;;4951631;28;20454;-65
2022/07/06 01:22:05;;;;;;;3.20;2.20;;;;;;;;;;5017024;28;20027;-66
2022/07/06 01:24:50;;;;;;;4.80;2.22;;;;;;;;;;4951115;28;20386;-65
2022/07/06 01:27:38;;;;;;;5.20;2.47;;;;;;;;;;4955912;28;20031;-65
2022/07/06 01:30:23;;;;;;;4.22;2.00;;;;;;;;;;4962649;28;20539;-65
2022/07/06 01:33:09;;;;;;;6.70;1.98;;;;;;;;;;4949760;28;20027;-65
2022/07/06 01:35:55;;;;;;;2.88;2.00;;;;;;;;;;4957370;28;20058;-69
2022/07/06 01:39:07;;;;;;;5.15;2.15;;;;;;;;;;4960623;28;20478;-69
2022/07/06 01:41:52;;;;;;;3.65;2.05;;;;;;;;;;4952920;28;20041;-68
2022/07/06 01:44:38;;;;;;;4.78;2.42;;;;;;;;;;4951676;28;20027;-69
2022/07/06 01:47:23;;;;;;;4.10;2.00;;;;;;;;;;4950969;28;20034;-69
2022/07/06 01:50:09;;;;;;;3.05;2.10;;;;;;;;;;4962518;28;20532;-68
2022/07/06 01:52:55;;;;;;;7.13;2.30;;;;;;;;;;4958458;28;20093;-63
2022/07/06 01:55:40;;;;;;;3.40;2.17;;;;;;;;;;4958966;28;20045;-59
2022/07/06 01:58:26;;;;;;;4.57;2.38;;;;;;;;;;4949144;28;20020;-69
2022/07/06 02:01:13;;;;;;;3.40;2.08;;;;;;;;;;4956778;28;20113;-69
2022/07/06 02:03:58;;;;;;;5.07;2.78;;;;;;;;;;4945507;28;20027;-70
2022/07/06 02:06:44;;;;;;;6.28;2.25;;;;;;;;;;4954678;28;20100;-70
2022/07/06 02:09:29;;;;;;;5.35;2.15;;;;;;;;;;4954403;28;20038;-71
2022/07/06 02:12:15;;;;;;;6.25;2.25;;;;;;;;;;4946523;28;20035;-72
2022/07/06 02:15:00;;;;;;;10.52;2.50;;;;;;;;;;4949335;28;20043;-73
2022/07/06 02:17:46;;;;;;;4.50;2.25;;;;;;;;;;4945392;28;20058;-75
2022/07/06 02:20:31;;;;;;;5.55;2.05;;;;;;;;;;4951515;28;20063;-74
2022/07/06 02:23:17;;;;;;;6.55;2.28;;;;;;;;;;4949813;28;20032;-73
2022/07/06 02:26:03;;;;;;;4.15;1.95;;;;;;;;;;4954471;28;20030;-72
2022/07/06 02:28:49;;;;;;;4.28;2.42;;;;;;;;;;4989939;28;20033;-74
2022/07/06 02:31:34;;;;;;;5.05;1.92;;;;;;;;;;4952942;28;20066;-71
2022/07/06 02:34:20;;;;;;;4.57;1.80;;;;;;;;;;4945627;28;20084;-58
2022/07/06 02:37:06;;;;;;;5.88;2.00;;;;;;;;;;4951462;28;20035;-60
2022/07/06 02:39:51;;;;;;;3.70;1.65;;;;;;;;;;4939266;28;20035;-59
2022/07/06 02:42:37;;;;;;;4.43;2.30;;;;;;;;;;4948112;28;20426;-59
2022/07/06 02:45:23;;;;;;;4.07;2.42;;;;;;;;;;4955788;28;20035;-59
2022/07/06 02:48:08;;;;;;;3.38;2.10;;;;;;;;;;4958809;28;20375;-63
2022/07/06 02:50:54;;;;;;;4.32;1.98;;;;;;;;;;4949218;28;20023;-59
2022/07/06 02:53:39;;;;;;;2.45;1.60;;;;;;;;;;4948563;28;20043;-72
2022/07/06 02:56:25;;;;;;;4.45;2.40;;;;;;;;;;4951991;28;20047;-77
2022/07/06 02:59:10;;;;;;;5.00;2.63;;;;;;;;;;4957927;28;20027;-72
2022/07/06 03:01:56;;;;;;;4.97;2.10;;;;;;;;;;4951917;28;20165;-70
2022/07/06 03:04:42;;;;;;;4.10;1.92;;;;;;;;;;4947251;28;20038;-72
2022/07/06 03:07:27;;;;;;;3.40;2.17;;;;;;;;;;4950309;28;20259;-69
2022/07/06 03:10:13;;;;;;;2.58;1.65;;;;;;;;;;4941726;28;20089;-62
2022/07/06 03:12:59;;;;;;;4.28;2.55;;;;;;;;;;4948975;28;20027;-61
2022/07/06 03:15:44;;;;;;;6.00;2.63;;;;;;;;;;4948912;28;20179;-63
2022/07/06 03:18:30;;;;;;;5.00;2.10;;;;;;;;;;4959470;28;20088;-62
2022/07/06 03:21:15;;;;;;;7.20;2.67;;;;;;;;;;4946422;28;20039;-62
2022/07/06 03:24:01;;;;;;;4.30;2.20;;;;;;;;;;4953552;28;20489;-64
2022/07/06 03:26:46;;;;;;;4.43;2.40;;;;;;;;;;4955796;28;20027;-60
2022/07/06 03:29:32;;;;;;;4.78;2.40;;;;;;;;;;4953551;28;20024;-65
2022/07/06 03:32:17;;;;;;;3.30;2.40;;;;;;;;;;4947514;28;20027;-65
2022/07/06 03:35:03;;;;;;;5.90;2.47;;;;;;;;;;4957547;28;20490;-65
2022/07/06 03:37:49;;;;;;;2.80;2.20;;;;;;;;;;4952393;28;20047;-64
2022/07/06 03:40:34;;;;;;;11.00;2.63;;;;;;;;;;4952792;28;20154;-64
2022/07/06 03:43:20;;;;;;;3.40;2.40;;;;;;;;;;4950765;28;20019;-68
2022/07/06 03:46:05;;;;;;;4.63;2.40;;;;;;;;;;4950575;28;20030;-68
2022/07/06 03:48:51;;;;;;;4.72;2.53;;;;;;;;;;4946185;28;20023;-68
2022/07/06 03:51:37;;;;;;;6.53;2.30;;;;;;;;;;4956607;28;20038;-68
2022/07/06 03:54:23;;;;;;;4.70;2.42;;;;;;;;;;4951603;28;20126;-69
2022/07/06 03:57:08;;;;;;;7.05;3.22;;;;;;;;;;4948770;28;20030;-68
2022/07/06 03:59:54;;;;;;;4.03;2.38;;;;;;;;;;4958799;28;20084;-68
2022/07/06 04:02:40;;;;;;;6.35;2.70;;;;;;;;;;4943263;28;20173;-71
2022/07/06 04:05:25;;;;;;;5.20;2.25;;;;;;;;;;4953016;28;20519;-70
2022/07/06 04:08:11;;;;;;;4.70;2.70;;;;;;;;;;4950639;28;20220;-70
2022/07/06 04:10:56;;;;;;;5.78;2.67;;;;;;;;;;4949739;28;20027;-69
2022/07/06 04:13:42;;;;;;;3.75;2.47;;;;;;;;;;4962564;28;20366;-69
2022/07/06 04:16:27;;;;;;;6.28;2.30;;;;;;;;;;4945295;28;20501;-69
2022/07/06 04:19:14;;;;;;;7.13;2.85;;;;;;;;;;4947173;28;20031;-71
2022/07/06 04:21:59;;;;;;;7.18;2.67;;;;;;;;;;4947849;28;20434;-71
2022/07/06 04:24:45;;;;;;;8.32;3.17;;;;;;;;;;4947613;28;20133;-65
2022/07/06 04:27:30;;;;;;;5.40;2.30;;;;;;;;;;4957985;28;20016;-65
2022/07/06 04:30:16;;;;;;;5.50;2.67;;;;;;;;;;4952981;28;20359;-64
2022/07/06 04:33:01;;;;;;;3.63;2.35;;;;;;;;;;4948976;28;20030;-62
2022/07/06 04:35:47;;;;;;;5.82;2.70;;;;;;;;;;4952598;28;20035;-63
2022/07/06 04:38:33;;;;;;;4.40;2.58;;;;;;;;;;4961849;28;20462;-61
2022/07/06 04:41:18;;;;;;;3.42;2.30;;;;;;;;;;4952412;28;20028;-60
2022/07/06 04:44:04;;;;;;;3.05;2.45;;;;;;;;;;4963710;28;20027;-60
2022/07/06 04:46:49;;;;;;;4.20;2.65;;;;;;;;;;4950550;28;20436;-60
2022/07/06 04:49:35;;;;;;;3.10;2.15;;;;;;;;;;4946463;28;20034;-60
2022/07/06 04:52:21;;;;;;;5.43;2.17;;;;;;;;;;4952464;28;20037;-62
2022/07/06 04:55:08;;;;;;;3.83;1.85;;;;;;;;;;4946750;28;20049;-60
2022/07/06 04:57:54;;;;;;;6.53;2.38;;;;;;;;;;4973790;28;20039;-70
2022/07/06 05:00:40;;;;;;;5.20;2.40;;;;;;;;;;4934979;28;20025;-60
2022/07/06 05:03:26;;;;;;;6.50;2.40;;;;;;;;;;4945755;28;20394;-62
2022/07/06 05:06:11;;;;;;;8.25;2.45;;;;;;;;;;4945171;28;20024;-59
2022/07/06 05:08:59;;;;;;;7.10;3.25;;;;;;;;;;4944409;28;20058;-60
2022/07/06 05:11:45;;;;;;;4.45;2.42;;;;;;;;;;4947485;28;20039;-58
2022/07/06 05:14:30;;;;;;;5.60;2.80;;;;;;;;;;4948243;28;20423;-60
2022/07/06 05:17:16;;;;;;;4.80;3.08;;;;;;;;;;4948444;28;20394;-60
2022/07/06 05:20:01;;;;;;;6.07;2.92;;;;;;;;;;4943305;28;20564;-76
2022/07/06 05:22:47;;;;;;;4.45;2.42;;;;;;;;;;4942182;28;20278;-74
2022/07/06 05:25:32;;;;;;;8.57;2.67;;;;;;;;;;4940460;28;20035;-76
2022/07/06 05:28:18;;;;;;;4.22;2.50;;;;;;;;;;4946725;28;20027;-73
2022/07/06 05:31:03;;;;;;;6.25;2.90;;;;;;;;;;4950769;28;20034;-67
2022/07/06 05:33:49;;;;;;;5.05;3.38;;;;;;;;;;4944074;28;20114;-57
2022/07/06 05:36:35;;;;;;;6.40;2.65;;;;;;;;;;4945225;28;20383;-70
2022/07/06 05:39:22;;;;;;;6.40;2.78;;;;;;;;;;4940233;28;20531;-65
2022/07/06 05:42:08;;;;;;;7.00;3.00;;;;;;;;;;4945190;28;20042;-68
2022/07/06 05:44:56;;;;;;;9.93;3.05;;;;;;;;;;4949532;28;20035;-65
2022/07/06 05:50:46;;;;;;;8.05;2.63;;;;;;;;;;4943451;28;20020;-68
2022/07/06 05:53:32;;;;;;;4.85;2.30;;;;;;;;;;4948562;28;20077;-59
2022/07/06 05:56:17;;;;;;;5.47;2.72;;;;;;;;;;4951924;28;20043;-69
2022/07/06 05:59:03;;;;;;;6.35;2.53;;;;;;;;;;4958149;28;20031;-69
2022/07/06 06:01:48;;;;;;;8.40;2.72;;;;;;;;;;4946810;28;20059;-67
2022/07/06 06:04:34;;;;;;;6.88;2.35;;;;;;;;;;4977765;28;20038;-69
2022/07/06 06:07:20;;;;;;;7.57;2.63;;;;;;;;;;4949406;28;20367;-69
2022/07/06 06:10:07;;;;;;;6.30;2.97;;;;;;;;;;4950748;28;20245;-71
2022/07/06 06:12:53;;;;;;;5.93;2.85;;;;;;;;;;4949104;28;20489;-67
2022/07/06 06:15:38;;;;;;;9.07;2.85;;;;;;;;;;4958704;28;20031;-62
2022/07/06 06:18:24;;;;;;;5.57;2.50;;;;;;;;;;4948989;28;20027;-63
2022/07/06 06:21:10;;;;;;;6.53;2.63;;;;;;;;;;4950601;28;20027;-63
2022/07/06 06:23:55;;;;;;;5.15;2.50;;;;;;;;;;4946166;28;20034;-62
2022/07/06 06:26:41;;;;;;;8.57;3.08;;;;;;;;;;4947504;28;20069;-62
2022/07/06 06:29:27;;;;;;;5.97;2.90;;;;;;;;;;4949517;28;20115;-70
2022/07/06 06:32:13;;;;;;;6.97;2.00;;;;;;;;;;4946884;28;20035;-67
2022/07/06 06:34:58;;;;;;;4.05;2.30;;;;;;;;;;4949714;28;20036;-68
2022/07/06 06:37:44;;;;;;;6.55;2.65;;;;;;;;;;4950900;28;20081;-68
2022/07/06 06:40:29;;;;;;;5.30;2.65;;;;;;;;;;4943051;28;20057;-71
2022/07/06 06:43:15;;;;;;;10.13;2.85;;;;;;;;;;4950172;28;20043;-70
2022/07/06 06:46:00;;;;;;;7.75;2.53;;;;;;;;;;4951267;28;20035;-68
2022/07/06 06:48:46;;;;;;;6.57;2.65;;;;;;;;;;4947954;28;20027;-71
2022/07/06 06:51:32;;;;;;;4.78;2.85;;;;;;;;;;4950480;28;20121;-62
2022/07/06 06:54:18;;;;;;;4.95;2.30;;;;;;;;;;4949367;28;20027;-61
2022/07/06 06:57:03;;;;;;;5.57;3.03;;;;;;;;;;4945779;28;20093;-65
2022/07/06 06:59:49;;;;;;;6.15;2.30;;;;;;;;;;4943441;28;20027;-63
2022/07/06 07:02:34;;;;;;;6.72;2.80;;;;;;;;;;4950499;28;20035;-64
2022/07/06 07:05:20;;;;;;;6.55;2.20;;;;;;;;;;4944123;28;20031;-65
2022/07/06 07:08:06;;;;;;;5.47;2.17;;;;;;;;;;4951964;28;20113;-66
2022/07/06 07:10:51;;;;;;;8.98;2.47;;;;;;;;;;4948104;28;20035;-70
2022/07/06 07:13:37;;;;;;;6.93;2.10;;;;;;;;;;4945966;28;20110;-68
2022/07/06 07:16:24;;;;;;;5.15;2.20;;;;;;;;;;4949774;28;20181;-70
2022/07/06 07:19:09;;;;;;;6.68;2.40;;;;;;;;;;4947395;28;20034;-70
2022/07/06 07:21:55;;;;;;;3.75;1.90;;;;;;;;;;4959501;28;20420;-69
2022/07/06 07:24:40;;;;;;;5.43;2.83;;;;;;;;;;4943959;28;20027;-66
2022/07/06 07:27:26;;;;;;;6.18;2.13;;;;;;;;;;4948093;28;20097;-59
2022/07/06 07:30:11;;;;;;;3.58;2.25;;;;;;;;;;4950022;28;20027;-61
2022/07/06 07:33:00;;;;;;;3.72;2.03;;;;;;;;;;4955195;28;20359;-59
2022/07/06 07:35:45;;;;;;;7.68;2.55;;;;;;;;;;4946444;28;20306;-60
2022/07/06 07:38:31;;;;;;;4.30;2.13;;;;;;;;;;4945991;28;20417;-62
2022/07/06 07:41:16;;;;;;;3.13;1.98;;;;;;;;;;4948629;28;20100;-61
2022/07/06 07:44:02;;;;;;;4.25;2.60;;;;;;;;;;4947938;28;20027;-66
2022/07/06 07:46:47;;;;;;;5.55;1.80;;;;;;;;;;4947757;28;20126;-60
2022/07/06 07:49:33;;;;;;;7.00;2.13;;;;;;;;;;4955194;28;20098;-60
2022/07/06 07:52:18;;;;;;;5.55;2.40;;;;;;;;;;4947635;28;20051;-60
2022/07/06 07:55:04;;;;;;;5.30;2.08;;;;;;;;;;4950402;28;20067;-60
2022/07/06 07:57:50;;;;;;;7.80;2.38;;;;;;;;;;4950290;28;20069;-61
2022/07/06 08:00:35;;;;;;;2.28;1.73;;;;;;;;;;4949489;28;20027;-61
2022/07/06 08:03:21;;;;;;;4.07;1.85;;;;;;;;;;4958215;28;20023;-66
2022/07/06 08:06:07;;;;;;;3.95;1.90;;;;;;;;;;4948999;28;20491;-70
2022/07/06 08:08:52;;;;;;;6.13;2.17;;;;;;;;;;4948733;28;20034;-71
2022/07/06 08:11:38;;;;;;;6.65;1.92;;;;;;;;;;4946704;28;20015;-72
2022/07/06 08:14:24;;;;;;;4.10;2.13;;;;;;;;;;4945761;28;20031;-71
2022/07/06 08:17:10;;;;;;;8.63;2.55;;;;;;;;;;4947689;28;20143;-68
2022/07/06 08:19:55;;;;;;;6.75;2.53;;;;;;;;;;4950320;28;20067;-65
2022/07/06 08:22:41;;;;;;;7.55;2.53;;;;;;;;;;4950749;28;20027;-64
2022/07/06 08:25:27;;;;;;;9.60;2.10;;;;;;;;;;4948934;28;20454;-66
2022/07/06 08:28:12;;;;;;;5.95;2.05;;;;;;;;;;4947374;28;20081;-64
2022/07/06 08:30:58;;;;;;;5.82;2.65;;;;;;;;;;4944568;28;20401;-64
2022/07/06 08:33:44;;;;;;;5.07;2.35;;;;;;;;;;4945921;28;20228;-64
2022/07/06 08:36:29;;;;;;;7.60;2.33;;;;;;;;;;4946997;28;20051;-65
2022/07/06 08:39:15;;;;;;;6.10;3.17;;;;;;;;;;4946740;28;20027;-69
2022/07/06 08:42:01;;;;;;;6.13;2.70;;;;;;;;;;4943846;28;20243;-70
2022/07/06 08:44:47;;;;;;;6.80;2.35;;;;;;;;;;4981528;28;20476;-68
2022/07/06 08:47:35;;;;;;;6.30;2.35;;;;;;;;;;4951315;28;20039;-68
2022/07/06 08:50:21;;;;;;;6.25;2.20;;;;;;;;;;4947723;28;20020;-67
2022/07/06 08:53:07;;;;;;;5.53;2.53;;;;;;;;;;4942171;28;20367;-67
2022/07/06 08:55:52;;;;;;;4.80;2.50;;;;;;;;;;4947630;28;20031;-65
2022/07/06 08:58:41;;;;;;;5.38;2.88;;;;;;;;;;4952927;28;20371;-59
2022/07/06 09:01:27;;;;;;;6.95;2.45;;;;;;;;;;4946723;28;20034;-59
2022/07/06 09:04:15;;;;;;;8.73;2.38;;;;;;;;;;4947043;28;20043;-60
2022/07/06 09:07:01;;;;;;;6.80;2.70;;;;;;;;;;4949424;28;20031;-61
2022/07/06 09:09:46;;;;;;;8.70;2.53;;;;;;;;;;4948364;28;20058;-60
2022/07/06 09:12:32;;;;;;;5.55;2.55;;;;;;;;;;4943681;28;20402;-60
2022/07/06 09:15:18;;;;;;;4.35;2.45;;;;;;;;;;4948276;28;20042;-60
2022/07/06 09:18:03;;;;;;;11.05;2.85;;;;;;;;;;4942105;28;20053;-67
2022/07/06 09:20:49;;;;;;;6.20;2.42;;;;;;;;;;4951092;28;20093;-65
2022/07/06 09:23:35;;;;;;;5.85;2.40;;;;;;;;;;4945241;28;20089;-67
2022/07/06 09:26:21;;;;;;;7.53;2.67;;;;;;;;;;4950387;28;20031;-66
2022/07/06 09:29:07;;;;;;;7.82;2.70;;;;;;;;;;4949545;28;20386;-66
2022/07/06 09:31:57;;;;;;;4.80;2.20;;;;;;;;;;4958270;28;20038;-70
2022/07/06 09:34:44;;;;;;;5.65;2.40;;;;;;;;;;4949138;28;20037;-59
2022/07/06 09:37:29;;;;;;;5.10;2.15;;;;;;;;;;4949834;28;20027;-66
2022/07/06 09:40:18;;;;;;;8.13;2.88;;;;;;;;;;4950935;28;20100;-64
2022/07/06 09:43:17;;;;;;;6.50;2.33;;;;;;;;;;4957463;28;20031;-65
2022/07/06 09:46:03;;;;;;;5.57;2.30;;;;;;;;;;4953018;28;20038;-65
2022/07/06 09:48:49;;;;;;;3.95;2.08;;;;;;;;;;4957947;28;20460;-71
2022/07/06 09:51:37;;;;;;;4.78;2.13;;;;;;;;;;4954708;28;20035;-65
2022/07/06 09:54:23;;;;;;;6.30;2.72;;;;;;;;;;4952033;28;20062;-66
2022/07/06 09:57:09;;;;;;;4.18;2.10;;;;;;;;;;4954348;28;20475;-68
2022/07/06 09:59:54;;;;;;;5.93;2.63;;;;;;;;;;4950119;28;20118;-66
2022/07/06 10:02:40;;;;;;;5.03;2.50;;;;;;;;;;4946863;28;20721;-68
2022/07/06 10:05:29;;;;;;;4.40;2.25;;;;;;;;;;4952863;28;20038;-67
2022/07/06 10:08:15;;;;;;;11.88;2.85;;;;;;;;;;4951114;28;20026;-66
2022/07/06 10:11:01;;;;;;;6.10;2.33;;;;;;;;;;4958158;28;20039;-67
2022/07/06 10:13:48;;;;;;;4.20;2.20;;;;;;;;;;4961548;28;20028;-71
2022/07/06 10:16:38;;;;;;;7.53;2.42;;;;;;;;;;4956882;28;20520;-67
2022/07/06 10:19:24;;;;;;;4.43;2.28;;;;;;;;;;4954805;28;20046;-68
2022/07/06 10:22:11;;;;;;;7.05;2.63;;;;;;;;;;4956384;28;20049;-69
2022/07/06 10:24:57;;;;;;;8.95;2.60;;;;;;;;;;4952091;28;20027;-70
2022/07/06 10:27:44;;;;;;;4.10;2.45;;;;;;;;;;4948357;28;20075;-70
2022/07/06 10:30:31;;;;;;;7.63;2.65;;;;;;;;;;4948028;28;20027;-61
2022/07/06 10:33:17;;;;;;;7.10;2.50;;;;;;;;;;4952163;28;20019;-60
2022/07/06 10:36:02;;;;;;;5.82;2.38;;;;;;;;;;4945966;28;20070;-60
2022/07/06 10:38:49;;;;;;;5.78;2.70;;;;;;;;;;4952789;28;20088;-64
2022/07/06 10:41:38;;;;;;;8.02;3.00;;;;;;;;;;4942900;28;20028;-61
2022/07/06 10:44:25;;;;;;;6.27;2.57;;;;;;;;;;4953638;28;20106;-64
2022/07/06 10:47:10;;;;;;;7.72;2.70;;;;;;;;;;4949131;28;20059;-68
2022/07/06 10:49:59;;;;;;;4.30;1.90;;;;;;;;;;4952744;28;20016;-69
2022/07/06 10:52:48;;;;;;;4.10;2.20;;;;;;;;;;4951570;28;20080;-65
2022/07/06 10:55:37;;;;;;;7.05;2.63;;;;;;;;;;4952215;28;20497;-66
2022/07/06 10:58:52;;;;;;;6.35;3.00;;;;;;;;;;4943081;28;21425;-68
2022/07/06 11:01:38;;;;;;;5.25;2.72;;;;;;;;;;4938880;28;20023;-67
2022/07/06 11:04:30;;;;;;;3.70;2.20;;;;;;;;;;4957910;28;20095;-65
2022/07/06 11:07:16;;;;;;;7.25;2.75;;;;;;;;;;4945848;28;20027;-67
2022/07/06 11:10:02;;;;;;;4.78;2.25;;;;;;;;;;4948783;28;20032;-71
2022/07/06 11:12:57;;;;;;;6.70;2.38;;;;;;;;;;4950561;28;20031;-68
2022/07/06 11:15:47;;;;;;;11.02;3.47;;;;;;;;;;4952530;28;20073;-71
2022/07/06 11:18:40;;;;;;;4.25;2.42;;;;;;;;;;4949349;28;20066;-69
2022/07/06 11:21:39;;;;;;;3.92;2.20;;;;;;;;;;4951256;28;20019;-74
2022/07/06 11:24:25;;;;;;;;;;;;;;;;;;4953317;28;20493;-72
2022/07/06 11:27:10;;;;;;;2.97;2.42;;;;;;;;;;4948389;28;19914;-66
2022/07/06 11:29:56;;;;;;;5.35;2.20;;;;;;;;;;4940061;28;20027;-65
2022/07/06 11:32:41;;;;;;;5.78;2.63;;;;;;;;;;4949031;28;20109;-68
2022/07/06 11:35:27;;;;;;;8.85;2.85;;;;;;;;;;4943876;28;20478;-68
2022/07/06 11:38:25;;;;;;;4.50;2.55;;;;;;;;;;4952698;28;20027;-66
2022/07/06 11:41:13;;;;;;;4.18;2.70;;;;;;;;;;4946386;28;20096;-66
2022/07/06 11:43:59;;;;;;;7.03;3.47;;;;;;;;;;4938262;28;20032;-76
2022/07/06 11:46:44;;;;;;;4.50;2.58;;;;;;;;;;4952904;28;20028;-77
2022/07/06 11:49:31;;;;;;;7.70;2.60;;;;;;;;;;4946112;28;20193;-74
2022/07/06 11:52:16;;;;;;;10.43;3.80;;;;;;;;;;4946816;28;20027;-74
2022/07/06 11:55:02;;;;;;;6.95;3.25;;;;;;;;;;4948211;28;20080;-82
2022/07/06 11:57:48;;;;;;;7.75;2.67;;;;;;;;;;4953846;28;20085;-75
2022/07/06 12:00:33;;;;;;;8.05;3.38;;;;;;;;;;4948131;28;20157;-64
2022/07/06 12:03:19;;;;;;;6.53;3.08;;;;;;;;;;4950179;28;20113;-82
2022/07/06 12:06:05;;;;;;;4.25;2.40;;;;;;;;;;4976405;28;20197;-73
2022/07/06 12:08:52;;;;;;;12.88;2.83;;;;;;;;;;4952654;28;20037;-79
2022/07/06 12:11:39;;;;;;;6.75;3.20;;;;;;;;;;4946738;28;20028;-70
2022/07/06 12:14:25;;;;;;;8.18;3.00;;;;;;;;;;4944319;28;20035;-74
2022/07/06 12:17:12;;;;;;;8.43;3.70;;;;;;;;;;4948948;28;20131;-74
2022/07/06 12:19:58;;;;;;;6.80;2.92;;;;;;;;;;4961369;28;20016;-71
2022/07/06 12:22:44;;;;;;;10.68;2.80;;;;;;;;;;4945173;28;20031;-67
2022/07/06 12:25:30;;;;;;;10.85;3.20;;;;;;;;;;4941184;28;20058;-66
2022/07/06 12:28:22;;;;;;;5.20;2.80;;;;;;;;;;4953215;28;20027;-67
2022/07/06 12:31:09;;;;;;;9.52;3.28;;;;;;;;;;4956819;28;20057;-67
2022/07/06 12:33:58;;;;;;;9.25;2.80;;;;;;;;;;4947039;28;20050;-69
2022/07/06 12:36:49;;;;;;;7.18;3.13;;;;;;;;;;4949641;28;20045;-60
2022/07/06 12:39:42;;;;;;;7.07;2.58;;;;;;;;;;4945037;28;20046;-65
2022/07/06 12:42:28;;;;;;;4.10;3.00;;;;;;;;;;4945523;28;20031;-68
2022/07/06 12:45:13;;;;;;;7.53;2.90;;;;;;;;;;4942493;28;20047;-69
2022/07/06 12:48:04;;;;;;;7.30;2.88;;;;;;;;;;4948303;28;20034;-75
2022/07/06 12:50:50;;;;;;;12.07;3.85;;;;;;;;;;4936944;28;20474;-68
2022/07/06 12:53:35;;;;;;;7.75;2.92;;;;;;;;;;4949256;28;20157;-72
2022/07/06 12:56:21;;;;;;;8.68;3.00;;;;;;;;;;4954061;28;20485;-59
2022/07/06 12:59:07;;;;;;;5.13;2.65;;;;;;;;;;4957710;28;20020;-61
2022/07/06 13:01:56;;;;;;;5.93;2.50;;;;;;;;;;4963236;28;20488;-59
2022/07/06 13:04:41;;;;;;;;;;;;;;;;;;4945709;28;20042;-58
2022/07/06 13:07:28;;;;;;;7.45;3.00;;;;;;;;;;4943944;28;19915;-58
2022/07/06 13:10:15;;;;;;;5.43;2.80;;;;;;;;;;4952408;28;20039;-60
2022/07/06 13:13:00;;;;;;;9.55;2.83;;;;;;;;;;4944742;28;20023;-62
2022/07/06 13:15:46;;;;;;;5.68;2.33;;;;;;;;;;4944990;28;20437;-60
2022/07/06 13:18:31;;;;;;;9.68;2.45;;;;;;;;;;4976667;28;20023;-63
2022/07/06 13:21:17;;;;;;;5.00;2.45;;;;;;;;;;4944131;28;20023;-64
2022/07/06 13:24:03;;;;;;;5.65;2.25;;;;;;;;;;4954822;28;20027;-64
2022/07/06 13:26:49;;;;;;;6.28;2.33;;;;;;;;;;4948848;28;20389;-64
2022/07/06 13:29:34;;;;;;;3.90;1.95;;;;;;;;;;4948448;28;20103;-64
2022/07/06 13:32:21;;;;;;;3.80;2.20;;;;;;;;;;4970909;28;20035;-71
2022/07/06 13:35:07;;;;;;;5.20;2.15;;;;;;;;;;4952769;28;20117;-68
2022/07/06 13:37:52;;;;;;;7.05;2.30;;;;;;;;;;4947569;28;20505;-69
2022/07/06 13:40:38;;;;;;;6.63;2.03;;;;;;;;;;4954502;28;20065;-68
2022/07/06 13:43:23;;;;;;;6.07;2.33;;;;;;;;;;4949203;28;20027;-68
2022/07/06 13:46:10;;;;;;;5.95;2.45;;;;;;;;;;4945651;28;20235;-67
2022/07/06 13:48:57;;;;;;;8.35;2.63;;;;;;;;;;4942356;28;20023;-68
2022/07/06 13:51:42;;;;;;;7.60;2.50;;;;;;;;;;4943986;28;20077;-64
2022/07/06 13:54:28;;;;;;;3.60;2.30;;;;;;;;;;4943250;28;20074;-64
2022/07/06 13:57:14;;;;;;;7.25;3.22;;;;;;;;;;4948562;28;20608;-64
2022/07/06 13:59:59;;;;;;;5.68;2.00;;;;;;;;;;4948473;28;20107;-65
2022/07/06 14:02:45;;;;;;;5.90;2.00;;;;;;;;;;4945127;28;20545;-65
2022/07/06 14:05:31;;;;;;;3.83;2.13;;;;;;;;;;4951616;28;20151;-64
2022/07/06 14:08:16;;;;;;;6.57;2.10;;;;;;;;;;4954572;28;20092;-65
2022/07/06 14:11:02;;;;;;;5.53;2.50;;;;;;;;;;4949095;28;20489;-67
2022/07/06 14:13:48;;;;;;;6.63;2.72;;;;;;;;;;4948817;28;20023;-69
2022/07/06 14:16:37;;;;;;;7.38;2.20;;;;;;;;;;4949447;28;20042;-68
2022/07/06 14:19:22;;;;;;;10.32;2.22;;;;;;;;;;4946112;28;20478;-68
2022/07/06 14:22:08;;;;;;;4.03;2.17;;;;;;;;;;4950590;28;20043;-67
2022/07/06 14:24:53;;;;;;;3.67;2.15;;;;;;;;;;4959560;28;20019;-67
2022/07/06 14:27:40;;;;;;;4.65;2.03;;;;;;;;;;4946423;28;20030;-69
2022/07/06 14:30:25;;;;;;;4.90;2.67;;;;;;;;;;4950487;28;20502;-65
2022/07/06 14:33:12;;;;;;;4.43;1.70;;;;;;;;;;4949529;28;20045;-71
2022/07/06 14:35:58;;;;;;;4.90;2.10;;;;;;;;;;4953985;28;21613;-72
2022/07/06 14:38:44;;;;;;;3.60;1.95;;;;;;;;;;4948112;28;20467;-72
2022/07/06 14:41:30;;;;;;;3.88;2.00;;;;;;;;;;4950115;28;20567;-70
2022/07/06 14:44:15;;;;;;;6.28;2.25;;;;;;;;;;4954965;28;20051;-70
2022/07/06 14:47:01;;;;;;;4.50;2.17;;;;;;;;;;4949369;28;20066;-71
2022/07/06 14:49:46;;;;;;;3.38;2.25;;;;;;;;;;4954726;28;20020;-69
2022/07/06 14:52:32;;;;;;;3.88;1.92;;;;;;;;;;4957014;28;20022;-67
2022/07/06 14:55:18;;;;;;;5.10;2.03;;;;;;;;;;4953633;28;20076;-69
2022/07/06 14:58:03;;;;;;;3.83;2.15;;;;;;;;;;4949428;28;20031;-67
2022/07/06 15:00:49;;;;;;;5.10;2.08;;;;;;;;;;4948108;28;20106;-67
2022/07/06 15:03:35;;;;;;;6.30;1.85;;;;;;;;;;4947582;28;20031;-69
2022/07/06 15:06:21;;;;;;;6.00;1.75;;;;;;;;;;4951561;28;20035;-63
2022/07/06 15:09:06;;;;;;;3.40;1.90;;;;;;;;;;4948466;28;20106;-62
2022/07/06 15:11:52;;;;;;;4.30;2.03;;;;;;;;;;4947710;28;20027;-66
2022/07/06 15:14:38;;;;;;;5.10;1.77;;;;;;;;;;4950037;28;20023;-64
2022/07/06 15:17:23;;;;;;;5.50;1.88;;;;;;;;;;4951901;28;20406;-64
2022/07/06 15:20:10;;;;;;;4.53;2.15;;;;;;;;;;4950919;28;20102;-65
2022/07/06 15:22:56;;;;;;;4.72;2.05;;;;;;;;;;4947803;28;20072;-66
2022/07/06 15:25:42;;;;;;;5.00;1.95;;;;;;;;;;4952015;28;20478;-69
2022/07/06 15:28:28;;;;;;;5.90;1.90;;;;;;;;;;4955059;28;20132;-69
2022/07/06 15:31:14;;;;;;;4.72;2.38;;;;;;;;;;4948368;28;20054;-71
2022/07/06 15:33:59;;;;;;;1.60;1.50;;;;;;;;;;4948628;28;20558;-71
2022/07/06 15:36:45;;;;;;;2.75;1.50;;;;;;;;;;4977187;28;20387;-72
2022/07/06 15:39:30;;;;;;;3.15;1.70;;;;;;;;;;4951270;28;20103;-73
2022/07/06 15:42:16;;;;;;;3.20;2.15;;;;;;;;;;4942707;28;20063;-60
2022/07/06 15:45:02;;;;;;;8.43;1.67;;;;;;;;;;4945137;28;20509;-59
2022/07/06 15:47:47;;;;;;;8.15;2.08;;;;;;;;;;4969848;28;20118;-62
2022/07/06 15:50:35;;;;;;;8.65;2.00;;;;;;;;;;4949369;28;20023;-59
2022/07/06 15:53:21;;;;;;;4.55;2.28;;;;;;;;;;4947891;28;20031;-61
2022/07/06 15:56:06;;;;;;;3.80;2.17;;;;;;;;;;4948457;28;20077;-59
2022/07/06 15:58:52;;;;;;;5.82;1.90;;;;;;;;;;4948203;28;20030;-60
2022/07/06 16:01:37;;;;;;;4.20;1.70;;;;;;;;;;4950213;28;20113;-65
2022/07/06 16:04:24;;;;;;;6.22;1.85;;;;;;;;;;4944609;28;20035;-69
2022/07/06 16:07:09;;;;;;;5.72;2.00;;;;;;;;;;4943393;28;20035;-69
2022/07/06 16:09:55;;;;;;;4.25;2.08;;;;;;;;;;4947203;28;20084;-69
2022/07/06 16:12:40;;;;;;;4.93;2.08;;;;;;;;;;4946847;28;20053;-73
2022/07/06 16:15:26;;;;;;;5.07;1.85;;;;;;;;;;4945474;28;20627;-67
2022/07/06 16:18:12;;;;;;;3.58;1.67;;;;;;;;;;4944564;28;20042;-59
2022/07/06 16:20:57;;;;;;;3.95;1.80;;;;;;;;;;4945003;28;20110;-64
2022/07/06 16:23:43;;;;;;;3.80;1.85;;;;;;;;;;4948776;28;20487;-64
2022/07/06 16:26:29;;;;;;;4.38;1.70;;;;;;;;;;4947462;28;20467;-63
2022/07/06 16:29:15;;;;;;;3.80;1.88;;;;;;;;;;4950325;28;20035;-64
2022/07/06 16:32:01;;;;;;;2.65;1.70;;;;;;;;;;4948432;28;20019;-62
2022/07/06 16:34:46;;;;;;;4.72;1.67;;;;;;;;;;4949371;28;20457;-65
2022/07/06 16:37:32;;;;;;;4.68;1.50;;;;;;;;;;4944650;28;20138;-64
2022/07/06 16:40:18;;;;;;;4.18;1.88;;;;;;;;;;4951218;28;20375;-68